createdAt,value
2023-09-06T00:01:22.640Z,60.36
2023-09-06T00:03:49.327Z,60.97
2023-09-06T00:06:16.024Z,61.35
2023-09-06T00:08:42.758Z,61.48
2023-09-06T00:11:09.302Z,62.03
2023-09-06T00:13:36.546Z,61.66
2023-09-06T00:16:05.063Z,61.85
2023-09-06T00:18:32.572Z,61.49
2023-09-06T00:20:59.468Z,62.16
2023-09-06T00:23:26.580Z,62.12
2023-09-06T00:25:54.955Z,62.16
2023-09-06T00:28:21.835Z,61.41
2023-09-06T00:30:48.466Z,61.58
2023-09-06T00:33:15.091Z,60.78
2023-09-06T00:35:41.684Z,62.12
2023-09-06T00:38:08.626Z,62.35
2023-09-06T00:40:39.030Z,62.46
2023-09-06T00:43:07.392Z,62.09
2023-09-06T00:45:49.022Z,62.47
2023-09-06T00:48:20.915Z,62.92
2023-09-06T00:50:52.813Z,64.32
2023-09-06T00:53:21.384Z,64.09
2023-09-06T00:55:49.969Z,64.52
2023-09-06T00:58:18.573Z,64.73
2023-09-06T01:00:50.574Z,65.03
2023-09-06T01:03:18.811Z,65.19
2023-09-06T01:06:22.035Z,66.03
2023-09-06T01:08:56.455Z,66.04
2023-09-06T01:11:25.011Z,66.89
2023-09-06T01:13:56.594Z,67.40
2023-09-06T01:16:28.166Z,67.56
2023-09-06T01:18:54.950Z,67.51
2023-09-06T01:21:25.773Z,68.11
2023-09-06T01:23:52.910Z,68.08
2023-09-06T01:26:19.604Z,68.27
2023-09-06T01:28:46.524Z,68.39
2023-09-06T01:31:13.099Z,68.35
2023-09-06T01:33:40.617Z,68.55
2023-09-06T01:36:07.263Z,68.97
2023-09-06T01:38:34.107Z,68.95
2023-09-06T01:41:03.412Z,69.01
2023-09-06T01:43:30.042Z,68.98
2023-09-06T01:45:56.953Z,69.19
2023-09-06T01:48:23.724Z,69.36
2023-09-06T01:50:50.496Z,69.53
2023-09-06T01:53:16.950Z,69.36
2023-09-06T01:55:44.736Z,69.84
2023-09-06T01:58:12.388Z,70.00
2023-09-06T02:00:39.533Z,70.26
2023-09-06T02:03:10.513Z,70.20
2023-09-06T02:05:37.395Z,70.51
2023-09-06T02:08:06.940Z,71.22
2023-09-06T02:10:33.482Z,71.01
2023-09-06T02:13:00.784Z,71.05
2023-09-06T02:15:27.442Z,70.46
2023-09-06T02:17:54.091Z,70.22
2023-09-06T02:20:22.166Z,70.28
2023-09-06T02:22:53.635Z,70.40
2023-09-06T02:25:25.825Z,70.91
2023-09-06T02:27:53.743Z,71.28
2023-09-06T02:30:21.455Z,70.70
2023-09-06T02:32:49.250Z,70.76
2023-09-06T02:35:16.450Z,70.28
2023-09-06T02:37:43.185Z,70.57
2023-09-06T02:40:19.179Z,70.08
2023-09-06T02:42:45.803Z,69.99
2023-09-06T02:45:13.151Z,70.30
2023-09-06T02:47:49.292Z,70.99
2023-09-06T02:50:18.247Z,70.46
2023-09-06T02:52:46.499Z,71.62
2023-09-06T02:55:14.454Z,71.22
2023-09-06T02:57:42.793Z,71.19
2023-09-06T03:00:26.707Z,72.23
2023-09-06T03:03:06.750Z,71.77
2023-09-06T03:05:42.641Z,71.61
2023-09-06T03:08:10.864Z,71.72
2023-09-06T03:10:37.381Z,71.15
2023-09-06T03:13:06.399Z,71.65
2023-09-06T03:15:33.192Z,71.66
2023-09-06T03:18:00.083Z,71.38
2023-09-06T03:20:44.301Z,71.47
2023-09-06T03:23:19.214Z,71.64
2023-09-06T03:25:50.504Z,71.63
2023-09-06T03:28:19.889Z,71.60
2023-09-06T03:30:46.998Z,71.32
2023-09-06T03:33:13.560Z,71.19
2023-09-06T03:35:40.152Z,70.93
2023-09-06T03:38:09.994Z,70.93
2023-09-06T03:40:37.065Z,70.69
2023-09-06T03:43:16.431Z,70.95
2023-09-06T03:45:47.183Z,70.72
2023-09-06T03:48:18.984Z,71.01
2023-09-06T03:50:47.211Z,70.98
2023-09-06T03:53:16.269Z,71.05
2023-09-06T03:55:43.435Z,70.84
2023-09-06T03:58:11.894Z,71.04
2023-09-06T04:00:43.052Z,70.68
2023-09-06T04:03:09.661Z,71.00
2023-09-06T04:05:36.205Z,71.08
2023-09-06T04:08:08.251Z,71.55
2023-09-06T04:10:37.917Z,71.54
2023-09-06T04:13:08.330Z,71.79
2023-09-06T04:15:43.880Z,71.67
2023-09-06T04:18:11.823Z,71.74
2023-09-06T04:20:40.418Z,71.87
2023-09-06T04:23:14.365Z,71.90
2023-09-06T04:25:46.560Z,72.21
2023-09-06T04:28:15.260Z,72.05
2023-09-06T04:30:47.193Z,72.37
2023-09-06T04:33:15.509Z,72.47
2023-09-06T04:35:44.875Z,71.94
2023-09-06T04:38:19.389Z,71.39
2023-09-06T04:40:47.405Z,71.81
2023-09-06T04:43:20.317Z,72.25
2023-09-06T04:45:50.624Z,71.91
2023-09-06T04:48:20.359Z,71.69
2023-09-06T04:50:47.847Z,72.04
2023-09-06T04:53:18.731Z,71.97
2023-09-06T04:55:45.850Z,72.35
2023-09-06T04:58:12.801Z,71.81
2023-09-06T05:00:42.644Z,72.02
2023-09-06T05:03:12.140Z,72.31
2023-09-06T05:05:40.927Z,72.43
2023-09-06T05:08:08.040Z,72.54
2023-09-06T05:10:38.788Z,72.56
2023-09-06T05:13:13.018Z,72.34
2023-09-06T05:15:39.865Z,72.42
2023-09-06T05:18:09.248Z,72.48
2023-09-06T05:20:39.033Z,72.94
2023-09-06T05:23:07.080Z,72.62
2023-09-06T05:25:34.517Z,72.46
2023-09-06T05:28:03.917Z,72.39
2023-09-06T05:30:31.021Z,72.34
2023-09-06T05:32:58.083Z,72.25
2023-09-06T05:35:25.700Z,72.12
2023-09-06T05:37:52.224Z,72.51
2023-09-06T05:40:24.307Z,72.39
2023-09-06T05:42:51.574Z,72.37
2023-09-06T05:45:20.411Z,72.05
2023-09-06T05:47:47.042Z,71.56
2023-09-06T05:50:13.615Z,71.75
2023-09-06T05:52:40.055Z,71.59
2023-09-06T05:55:07.892Z,71.19
2023-09-06T05:57:34.902Z,70.83
2023-09-06T06:00:02.580Z,70.19
2023-09-06T06:02:32.188Z,69.79
2023-09-06T06:04:58.776Z,69.99
2023-09-06T06:07:25.373Z,69.07
2023-09-06T06:09:51.786Z,69.57
2023-09-06T06:12:23.787Z,70.04
2023-09-06T06:14:53.990Z,71.37
2023-09-06T06:17:20.581Z,68.72
2023-09-06T06:19:50.516Z,68.52
2023-09-06T06:22:17.009Z,68.41
2023-09-06T06:24:47.061Z,67.32
2023-09-06T06:27:14.585Z,67.21
2023-09-06T06:29:41.325Z,64.32
2023-09-06T06:32:08.418Z,60.24
2023-09-06T06:34:39.902Z,58.62
2023-09-06T06:37:07.063Z,59.46
2023-09-06T06:39:33.790Z,55.97
2023-09-06T06:42:00.677Z,56.40
2023-09-06T06:44:27.260Z,56.42
2023-09-06T06:46:53.768Z,55.84
2023-09-06T06:49:20.943Z,55.28
2023-09-06T06:51:47.559Z,53.69
2023-09-06T06:54:15.925Z,52.42
2023-09-06T06:56:43.437Z,51.39
2023-09-06T06:59:10.384Z,51.61
2023-09-06T07:01:37.705Z,50.84
2023-09-06T07:04:05.738Z,49.20
2023-09-06T07:06:32.792Z,47.32
2023-09-06T07:08:59.460Z,45.87
2023-09-06T07:11:26.250Z,46.24
2023-09-06T07:13:53.973Z,45.82
2023-09-06T07:16:21.399Z,44.95
2023-09-06T07:18:48.615Z,44.51
2023-09-06T07:21:16.336Z,44.74
2023-09-06T07:23:43.795Z,44.57
2023-09-06T07:26:11.102Z,44.37
2023-09-06T07:28:41.724Z,43.61
2023-09-06T07:31:09.057Z,43.24
2023-09-06T07:33:36.120Z,42.63
2023-09-06T07:36:02.680Z,41.11
2023-09-06T07:38:29.400Z,40.84
2023-09-06T07:40:58.013Z,40.57
2023-09-06T07:43:26.906Z,39.93
2023-09-06T07:45:53.855Z,40.07
2023-09-06T07:48:20.788Z,39.01
2023-09-06T07:50:48.343Z,38.66
2023-09-06T07:53:15.051Z,38.15
2023-09-06T07:55:45.057Z,38.90
2023-09-06T07:58:12.202Z,38.46
2023-09-06T08:00:38.995Z,38.39
2023-09-06T08:03:05.913Z,38.06
2023-09-06T08:05:33.470Z,36.79
2023-09-06T08:08:00.339Z,36.75
2023-09-06T08:10:26.801Z,35.14
2023-09-06T08:12:53.336Z,35.40
2023-09-06T08:15:19.958Z,36.44
2023-09-06T08:17:48.592Z,37.64
2023-09-06T08:20:16.635Z,38.21
2023-09-06T08:22:46.572Z,36.63
2023-09-06T08:25:17.135Z,36.08
2023-09-06T08:27:43.712Z,35.15
2023-09-06T08:30:12.280Z,34.74
2023-09-06T08:32:40.056Z,35.25
2023-09-06T08:35:07.818Z,35.48
2023-09-06T08:37:35.180Z,34.38
2023-09-06T08:40:06.595Z,33.54
2023-09-06T08:42:34.806Z,31.81
2023-09-06T08:45:03.123Z,32.56
2023-09-06T08:47:29.964Z,32.76
2023-09-06T08:49:57.994Z,31.99
2023-09-06T08:52:25.743Z,31.50
2023-09-06T08:54:53.199Z,31.69
2023-09-06T08:57:22.370Z,31.50
2023-09-06T08:59:50.053Z,30.67
2023-09-06T09:02:17.307Z,30.54
2023-09-06T09:04:44.090Z,31.54
2023-09-06T09:07:14.389Z,31.07
2023-09-06T09:10:05.473Z,30.55
2023-09-06T09:12:32.962Z,30.49
2023-09-06T09:15:10.163Z,32.63
2023-09-06T09:17:57.428Z,34.30
2023-09-06T09:20:28.242Z,34.44
2023-09-06T09:22:59.434Z,34.77
2023-09-06T09:25:25.968Z,34.10
2023-09-06T09:27:56.949Z,33.48
2023-09-06T09:30:24.933Z,34.59
2023-09-06T09:33:03.234Z,34.11
2023-09-06T09:35:32.543Z,33.54
2023-09-06T09:38:00.917Z,34.55
2023-09-06T09:40:45.981Z,33.55
2023-09-06T09:43:18.591Z,34.76
2023-09-06T09:45:46.947Z,35.13
2023-09-06T09:48:16.124Z,35.00
2023-09-06T09:50:43.658Z,35.92
2023-09-06T09:53:21.134Z,36.58
2023-09-06T09:55:50.516Z,35.37
2023-09-06T09:58:20.999Z,34.53
2023-09-06T10:00:51.448Z,34.70
2023-09-06T10:03:19.756Z,33.90
2023-09-06T10:05:48.769Z,33.51
2023-09-06T10:08:19.006Z,34.62
2023-09-06T10:10:45.921Z,33.03
2023-09-06T10:13:15.844Z,34.46
2023-09-06T10:15:44.389Z,34.67
2023-09-06T10:18:12.305Z,35.53
2023-09-06T10:20:40.415Z,36.48
2023-09-06T10:23:08.626Z,35.76
2023-09-06T10:25:41.009Z,34.71
2023-09-06T10:28:08.636Z,34.92
2023-09-06T10:30:52.416Z,34.92
2023-09-06T10:33:34.079Z,33.95
2023-09-06T10:36:07.147Z,33.62
2023-09-06T10:38:36.673Z,34.76
2023-09-06T10:41:08.131Z,35.22
2023-09-06T10:43:56.450Z,36.15
2023-09-06T10:46:28.542Z,38.57
2023-09-06T10:49:13.852Z,37.85
2023-09-06T10:51:56.057Z,36.55
2023-09-06T10:54:35.287Z,35.56
2023-09-06T10:57:07.577Z,36.64
2023-09-06T10:59:37.985Z,37.45
2023-09-06T11:02:27.045Z,37.25
2023-09-06T11:05:11.253Z,36.13
2023-09-06T11:07:51.042Z,37.14
2023-09-06T11:10:24.639Z,36.54
2023-09-06T11:12:54.998Z,36.53
2023-09-06T11:15:22.362Z,37.69
2023-09-06T11:17:48.869Z,37.31
2023-09-06T11:20:16.029Z,35.58
2023-09-06T11:22:53.147Z,35.36
2023-09-06T11:25:22.451Z,36.48
2023-09-06T11:27:51.040Z,36.41
2023-09-06T11:30:27.729Z,36.42
2023-09-06T11:32:56.395Z,36.95
2023-09-06T11:35:34.823Z,37.58
2023-09-06T11:38:02.100Z,37.26
2023-09-06T11:40:31.828Z,37.21
2023-09-06T11:43:05.679Z,38.06
2023-09-06T11:45:34.371Z,38.62
2023-09-06T11:48:06.863Z,37.33
2023-09-06T11:50:35.588Z,37.22
2023-09-06T11:53:05.957Z,37.64
2023-09-06T11:55:35.624Z,36.58
2023-09-06T11:58:02.435Z,38.23
2023-09-06T12:00:46.698Z,37.59
2023-09-06T12:03:14.467Z,36.98
2023-09-06T12:05:51.667Z,37.31
2023-09-06T12:08:23.914Z,37.21
2023-09-06T12:11:06.632Z,36.68
2023-09-06T12:13:38.522Z,37.47
2023-09-06T12:16:07.103Z,37.35
2023-09-06T12:18:35.943Z,37.28
2023-09-06T12:21:04.634Z,36.56
2023-09-06T12:23:31.804Z,36.85
2023-09-06T12:25:59.994Z,38.07
2023-09-06T12:28:29.188Z,37.52
2023-09-06T12:31:00.069Z,36.38
2023-09-06T12:33:28.722Z,37.27
2023-09-06T12:36:06.567Z,37.59
2023-09-06T12:38:33.573Z,38.57
2023-09-06T12:41:01.552Z,37.45
2023-09-06T12:43:28.167Z,37.30
2023-09-06T12:45:55.158Z,36.93
2023-09-06T12:48:22.839Z,35.53
2023-09-06T12:50:50.558Z,36.80
2023-09-06T12:53:17.475Z,37.04
2023-09-06T12:55:46.657Z,35.99
2023-09-06T12:58:13.420Z,35.17
2023-09-06T13:00:40.062Z,35.60
2023-09-06T13:03:07.600Z,34.25
2023-09-06T13:05:34.256Z,34.97
2023-09-06T13:08:01.776Z,35.02
2023-09-06T13:10:30.144Z,34.33
2023-09-06T13:12:56.664Z,35.22
2023-09-06T13:15:23.556Z,32.75
2023-09-06T13:17:50.125Z,32.81
2023-09-06T13:20:17.060Z,32.91
2023-09-06T13:22:44.649Z,32.34
2023-09-06T13:25:12.684Z,32.16
2023-09-06T13:27:39.804Z,33.17
2023-09-06T13:30:06.982Z,31.94
2023-09-06T13:32:33.666Z,32.27
2023-09-06T13:35:00.530Z,32.66
2023-09-06T13:37:28.084Z,31.78
2023-09-06T13:39:55.959Z,31.34
2023-09-06T13:42:22.540Z,31.98
2023-09-06T13:44:49.026Z,31.59
2023-09-06T13:47:17.486Z,31.98
2023-09-06T13:49:44.335Z,32.72
2023-09-06T13:52:13.447Z,31.44
2023-09-06T13:54:41.648Z,30.57
2023-09-06T13:57:08.540Z,31.64
2023-09-06T13:59:35.605Z,30.34
2023-09-06T14:02:02.193Z,31.17
2023-09-06T14:04:28.922Z,31.16
2023-09-06T14:06:55.663Z,32.12
2023-09-06T14:09:23.761Z,31.01
2023-09-06T14:11:50.750Z,31.05
2023-09-06T14:14:17.311Z,32.29
2023-09-06T14:16:44.491Z,30.97
2023-09-06T14:19:11.025Z,31.20
2023-09-06T14:21:39.585Z,31.43
2023-09-06T14:24:06.286Z,30.75
2023-09-06T14:26:32.866Z,30.90
2023-09-06T14:29:00.184Z,30.75
2023-09-06T14:31:27.055Z,29.60
2023-09-06T14:33:53.554Z,29.70
2023-09-06T14:36:20.067Z,30.70
2023-09-06T14:38:46.482Z,29.72
2023-09-06T14:41:14.097Z,29.87
2023-09-06T14:43:40.683Z,30.15
2023-09-06T14:46:07.924Z,30.12
2023-09-06T14:48:34.874Z,29.98
2023-09-06T14:51:02.525Z,30.19
2023-09-06T14:53:29.450Z,29.73
2023-09-06T14:56:03.253Z,29.03
2023-09-06T14:58:30.942Z,29.90
2023-09-06T15:00:57.782Z,29.63
2023-09-06T15:03:24.746Z,30.08
2023-09-06T15:05:51.889Z,30.24
2023-09-06T15:08:18.745Z,30.71
2023-09-06T15:10:45.747Z,30.20
2023-09-06T15:13:15.920Z,29.85
2023-09-06T15:15:44.324Z,29.74
2023-09-06T15:18:10.874Z,29.52
2023-09-06T15:20:37.782Z,29.57
2023-09-06T15:23:04.637Z,28.38
2023-09-06T15:25:31.490Z,28.46
2023-09-06T15:27:58.000Z,28.98
2023-09-06T15:30:24.804Z,28.73
2023-09-06T15:32:51.611Z,29.54
2023-09-06T15:35:18.227Z,28.59
2023-09-06T15:38:04.842Z,28.37
2023-09-06T15:40:32.980Z,28.18
2023-09-06T15:42:59.464Z,28.42
2023-09-06T15:45:26.746Z,27.95
2023-09-06T15:47:54.385Z,28.27
2023-09-06T15:50:21.238Z,28.17
2023-09-06T15:52:48.787Z,27.54
2023-09-06T15:55:16.105Z,26.94
2023-09-06T15:57:44.392Z,27.96
2023-09-06T16:02:41.797Z,27.39
2023-09-06T16:05:09.716Z,27.36
2023-09-06T16:07:38.103Z,27.96
2023-09-06T16:10:05.594Z,27.50
2023-09-06T16:12:32.578Z,27.29
2023-09-06T16:15:00.390Z,27.44
2023-09-06T16:17:28.032Z,27.63
2023-09-06T16:19:54.553Z,27.84
2023-09-06T16:22:22.959Z,27.68
2023-09-06T16:24:50.513Z,27.98
2023-09-06T16:27:17.293Z,27.72
2023-09-06T16:29:44.815Z,28.01
2023-09-06T16:32:13.883Z,27.70
2023-09-06T16:34:40.761Z,27.53
2023-09-06T16:37:07.233Z,27.38
2023-09-06T16:39:35.097Z,27.62
2023-09-06T16:42:02.231Z,28.16
2023-09-06T16:44:30.325Z,28.02
2023-09-06T16:46:58.396Z,28.20
2023-09-06T16:49:25.825Z,27.83
2023-09-06T16:51:52.492Z,28.64
2023-09-06T16:54:19.665Z,28.19
2023-09-06T16:56:46.923Z,28.29
2023-09-06T16:59:13.985Z,28.67
2023-09-06T17:01:40.904Z,28.76
2023-09-06T17:04:08.818Z,29.16
2023-09-06T17:06:35.537Z,29.11
2023-09-06T17:09:02.473Z,28.97
2023-09-06T17:11:29.206Z,29.30
2023-09-06T17:13:55.633Z,28.93
2023-09-06T17:16:22.155Z,28.95
2023-09-06T17:18:48.765Z,29.25
2023-09-06T17:21:15.324Z,29.41
2023-09-06T17:23:53.250Z,29.95
2023-09-06T17:26:27.693Z,30.19
2023-09-06T17:28:54.431Z,30.53
2023-09-06T17:31:22.021Z,30.61
2023-09-06T17:33:49.592Z,30.62
2023-09-06T17:36:16.397Z,30.81
2023-09-06T17:38:42.841Z,30.82
2023-09-06T17:41:10.222Z,31.59
2023-09-06T17:43:37.309Z,31.41
2023-09-06T17:46:07.099Z,31.67
2023-09-06T17:48:33.826Z,32.29
2023-09-06T17:51:08.716Z,32.31
2023-09-06T17:53:37.416Z,32.75
2023-09-06T17:56:16.384Z,33.08
2023-09-06T17:58:44.408Z,33.39
2023-09-06T18:01:13.905Z,34.46
2023-09-06T18:03:45.417Z,34.34
2023-09-06T18:06:14.959Z,34.79
2023-09-06T18:08:42.972Z,35.29
2023-09-06T18:11:10.039Z,35.70
2023-09-06T18:13:39.980Z,36.05
2023-09-06T18:16:12.089Z,36.42
2023-09-06T18:18:38.940Z,37.00
2023-09-06T18:21:10.119Z,37.27
2023-09-06T18:23:37.937Z,36.90
2023-09-06T18:26:05.401Z,37.21
2023-09-06T18:28:32.805Z,37.56
2023-09-06T18:31:00.228Z,37.69
2023-09-06T18:33:27.200Z,38.33
2023-09-06T18:35:56.588Z,37.86
2023-09-06T18:38:24.714Z,38.54
2023-09-06T18:40:54.353Z,38.63
2023-09-06T18:43:23.247Z,38.94
2023-09-06T18:45:49.934Z,39.21
2023-09-06T18:48:21.856Z,39.66
2023-09-06T18:50:50.720Z,40.09
2023-09-06T18:53:17.380Z,40.70
2023-09-06T18:55:47.777Z,40.93
2023-09-06T18:58:18.513Z,40.48
2023-09-06T19:00:45.972Z,40.57
2023-09-06T19:03:14.138Z,41.21
2023-09-06T19:05:42.357Z,42.25
2023-09-06T19:08:15.417Z,42.72
2023-09-06T19:10:43.303Z,42.54
2023-09-06T19:13:11.332Z,42.91
2023-09-06T19:15:37.875Z,43.65
2023-09-06T19:18:04.801Z,44.00
2023-09-06T19:20:31.361Z,44.35
2023-09-06T19:22:57.957Z,44.79
2023-09-06T19:25:28.556Z,45.27
2023-09-06T19:27:55.352Z,45.24
2023-09-06T19:30:22.330Z,45.75
2023-09-06T19:32:49.008Z,45.94
2023-09-06T19:35:15.600Z,46.12
2023-09-06T19:37:42.266Z,46.48
2023-09-06T19:40:11.316Z,47.00
2023-09-06T19:42:37.850Z,46.90
2023-09-06T19:45:04.667Z,47.01
2023-09-06T19:47:31.506Z,47.41
2023-09-06T19:49:58.176Z,47.40
2023-09-06T19:52:24.663Z,47.33
2023-09-06T19:54:51.066Z,47.69
2023-09-06T19:57:18.140Z,48.01
2023-09-06T19:59:44.587Z,48.26
2023-09-06T20:02:11.363Z,48.21
2023-09-06T20:04:39.517Z,48.54
2023-09-06T20:07:06.360Z,48.75
2023-09-06T20:09:33.052Z,49.10
2023-09-06T20:11:59.639Z,49.16
2023-09-06T20:14:28.957Z,49.37
2023-09-06T20:16:56.750Z,49.51
2023-09-06T20:19:24.505Z,49.62
2023-09-06T20:21:51.452Z,49.86
2023-09-06T20:24:18.168Z,49.92
2023-09-06T20:26:44.834Z,49.82
2023-09-06T20:29:11.522Z,50.19
2023-09-06T20:31:38.477Z,50.67
2023-09-06T20:34:05.375Z,50.68
2023-09-06T20:36:34.182Z,50.77
2023-09-06T20:39:00.738Z,51.28
2023-09-06T20:41:27.290Z,51.46
2023-09-06T20:43:53.845Z,51.44
2023-09-06T20:46:20.443Z,51.38
2023-09-06T20:48:47.480Z,51.19
2023-09-06T20:51:16.940Z,51.44
2023-09-06T20:53:44.557Z,51.06
2023-09-06T20:56:12.014Z,51.60
2023-09-06T20:58:39.172Z,52.42
2023-09-06T21:01:16.529Z,53.10
2023-09-06T21:03:43.398Z,53.06
2023-09-06T21:06:11.858Z,53.88
2023-09-06T21:08:39.901Z,55.11
2023-09-06T21:11:06.524Z,55.70
2023-09-06T21:13:34.152Z,56.13
2023-09-06T21:16:05.946Z,56.34
2023-09-06T21:18:33.028Z,56.49
2023-09-06T21:20:59.899Z,57.06
2023-09-06T21:23:26.531Z,57.98
2023-09-06T21:25:53.273Z,57.62
2023-09-06T21:28:20.022Z,58.65
2023-09-06T21:30:48.576Z,58.76
2023-09-06T21:33:15.740Z,58.91
2023-09-06T21:35:46.601Z,58.93
2023-09-06T21:38:13.778Z,59.29
2023-09-06T21:40:46.144Z,59.38
2023-09-06T21:43:18.362Z,59.59
2023-09-06T21:45:46.537Z,59.58
2023-09-06T21:48:13.349Z,59.94
2023-09-06T21:50:41.917Z,60.50
2023-09-06T21:53:09.558Z,60.22
2023-09-06T21:55:36.357Z,60.65
2023-09-06T21:58:10.372Z,60.78
2023-09-06T22:00:37.698Z,60.71
2023-09-06T22:03:04.598Z,60.77
2023-09-06T22:05:31.194Z,61.27
2023-09-06T22:07:57.708Z,60.82
2023-09-06T22:10:24.561Z,61.02
2023-09-06T22:12:51.206Z,60.80
2023-09-06T22:15:17.738Z,61.22
2023-09-06T22:17:44.398Z,61.39
2023-09-06T22:20:11.210Z,61.69
2023-09-06T22:22:37.843Z,61.90
2023-09-06T22:25:06.372Z,62.11
2023-09-06T22:27:33.133Z,62.22
2023-09-06T22:29:59.736Z,62.16
2023-09-06T22:32:26.934Z,61.79
2023-09-06T22:34:53.679Z,62.25
2023-09-06T22:37:20.369Z,62.10
2023-09-06T22:39:46.944Z,61.84
2023-09-06T22:42:13.596Z,62.10
2023-09-06T22:44:40.186Z,62.10
2023-09-06T22:47:09.017Z,62.92
2023-09-06T22:49:38.347Z,63.01
2023-09-06T22:52:07.088Z,63.08
2023-09-06T22:54:37.017Z,63.83
2023-09-06T22:57:04.670Z,63.75
2023-09-06T22:59:31.785Z,64.44
2023-09-06T23:01:58.614Z,64.35
2023-09-06T23:04:25.201Z,65.19
2023-09-06T23:06:52.751Z,65.28
2023-09-06T23:09:20.831Z,65.99
2023-09-06T23:11:57.014Z,65.70
2023-09-06T23:14:25.053Z,65.52
2023-09-06T23:16:52.197Z,65.77
2023-09-06T23:19:26.223Z,66.11
2023-09-06T23:21:56.404Z,66.40
2023-09-06T23:24:23.852Z,66.79
2023-09-06T23:26:59.562Z,66.37
2023-09-06T23:29:29.503Z,66.71
2023-09-06T23:32:00.026Z,67.33
2023-09-06T23:34:30.854Z,67.43
2023-09-06T23:36:58.797Z,67.75
2023-09-06T23:39:29.553Z,67.99
2023-09-06T23:41:57.802Z,67.87
2023-09-06T23:44:24.993Z,68.07
2023-09-06T23:46:51.852Z,67.95
2023-09-06T23:49:21.113Z,68.48
2023-09-06T23:51:48.179Z,68.16
2023-09-06T23:54:15.250Z,68.43
2023-09-06T23:56:42.099Z,68.48
2023-09-06T23:59:08.918Z,68.42
